sensor_id;sensor_type;location;lat;lon;timestamp;temperature;humidity
5196;DHT22;2617;51.006;12.436;2023-05-14T00:00:00;12.10;99.90
5196;DHT22;2617;51.006;12.436;2023-05-14T00:05:03;11.90;99.90
5196;DHT22;2617;51.006;12.436;2023-05-14T00:10:07;11.80;99.90
5196;DHT22;2617;51.006;12.436;2023-05-14T00:15:10;11.70;99.90
5196;DHT22;2617;51.006;12.436;2023-05-14T00:20:13;11.70;99.90
5196;DHT22;2617;51.006;12.436;2023-05-14T00:25:16;11.50;99.90
5196;DHT22;2617;51.006;12.436;2023-05-14T00:30:26;11.50;99.90
5196;DHT22;2617;51.006;12.436;2023-05-14T00:35:29;11.30;99.90
5196;DHT22;2617;51.006;12.436;2023-05-14T00:40:32;11.30;99.90
5196;DHT22;2617;51.006;12.436;2023-05-14T00:45:34;11.10;99.90
5196;DHT22;2617;51.006;12.436;2023-05-14T00:50:37;10.90;99.90
5196;DHT22;2617;51.006;12.436;2023-05-14T00:55:41;10.70;99.90
5196;DHT22;2617;51.006;12.436;2023-05-14T01:00:44;10.60;99.90
5196;DHT22;2617;51.006;12.436;2023-05-14T01:11:21;10.50;99.90
5196;DHT22;2617;51.006;12.436;2023-05-14T01:16:24;10.50;99.90
5196;DHT22;2617;51.006;12.436;2023-05-14T01:21:36;10.40;99.90
5196;DHT22;2617;51.006;12.436;2023-05-14T01:26:38;10.20;99.90
5196;DHT22;2617;51.006;12.436;2023-05-14T01:31:41;10.10;99.90
5196;DHT22;2617;51.006;12.436;2023-05-14T01:36:43;10.00;99.90
5196;DHT22;2617;51.006;12.436;2023-05-14T01:41:46;9.90;99.90
5196;DHT22;2617;51.006;12.436;2023-05-14T01:46:49;9.90;99.90
5196;DHT22;2617;51.006;12.436;2023-05-14T01:51:52;9.70;99.90
5196;DHT22;2617;51.006;12.436;2023-05-14T01:56:54;9.70;99.90
5196;DHT22;2617;51.006;12.436;2023-05-14T02:01:57;9.70;99.90
5196;DHT22;2617;51.006;12.436;2023-05-14T02:06:59;9.70;99.90
5196;DHT22;2617;51.006;12.436;2023-05-14T02:12:01;9.60;99.90
5196;DHT22;2617;51.006;12.436;2023-05-14T02:17:04;9.60;99.90
5196;DHT22;2617;51.006;12.436;2023-05-14T02:22:06;9.60;99.90
5196;DHT22;2617;51.006;12.436;2023-05-14T02:27:09;9.70;99.90
5196;DHT22;2617;51.006;12.436;2023-05-14T02:32:11;9.70;99.90
5196;DHT22;2617;51.006;12.436;2023-05-14T02:37:14;9.50;99.90
5196;DHT22;2617;51.006;12.436;2023-05-14T02:42:17;9.50;99.90
5196;DHT22;2617;51.006;12.436;2023-05-14T02:47:20;9.30;99.90
5196;DHT22;2617;51.006;12.436;2023-05-14T02:52:23;9.20;99.90
5196;DHT22;2617;51.006;12.436;2023-05-14T02:57:25;9.20;99.90
5196;DHT22;2617;51.006;12.436;2023-05-14T03:02:28;9.10;99.90
5196;DHT22;2617;51.006;12.436;2023-05-14T03:07:30;9.10;99.90
5196;DHT22;2617;51.006;12.436;2023-05-14T03:12:33;9.20;99.90
5196;DHT22;2617;51.006;12.436;2023-05-14T03:17:36;9.20;99.90
5196;DHT22;2617;51.006;12.436;2023-05-14T03:22:38;9.20;99.90
5196;DHT22;2617;51.006;12.436;2023-05-14T03:27:40;9.20;99.90
5196;DHT22;2617;51.006;12.436;2023-05-14T03:32:43;9.30;99.90
5196;DHT22;2617;51.006;12.436;2023-05-14T03:37:45;9.30;99.90
5196;DHT22;2617;51.006;12.436;2023-05-14T03:42:48;9.50;99.90
5196;DHT22;2617;51.006;12.436;2023-05-14T03:47:58;10.10;99.90
5196;DHT22;2617;51.006;12.436;2023-05-14T03:53:01;10.20;99.90
5196;DHT22;2617;51.006;12.436;2023-05-14T03:58:04;10.20;99.90
5196;DHT22;2617;51.006;12.436;2023-05-14T04:03:06;10.30;99.90
5196;DHT22;2617;51.006;12.436;2023-05-14T04:08:09;10.70;99.90
5196;DHT22;2617;51.006;12.436;2023-05-14T04:13:11;11.60;99.90
5196;DHT22;2617;51.006;12.436;2023-05-14T04:18:13;13.30;99.90
5196;DHT22;2617;51.006;12.436;2023-05-14T04:23:17;14.40;99.90
5196;DHT22;2617;51.006;12.436;2023-05-14T04:28:19;14.40;99.90
5196;DHT22;2617;51.006;12.436;2023-05-14T04:33:32;14.00;99.90
5196;DHT22;2617;51.006;12.436;2023-05-14T04:38:34;13.80;99.90
5196;DHT22;2617;51.006;12.436;2023-05-14T04:43:38;15.20;99.90
5196;DHT22;2617;51.006;12.436;2023-05-14T04:48:39;17.30;99.90
5196;DHT22;2617;51.006;12.436;2023-05-14T04:53:42;19.30;95.60
5196;DHT22;2617;51.006;12.436;2023-05-14T04:58:44;20.40;93.20
5196;DHT22;2617;51.006;12.436;2023-05-14T05:03:51;21.50;91.20
5196;DHT22;2617;51.006;12.436;2023-05-14T05:08:54;22.30;86.10
5196;DHT22;2617;51.006;12.436;2023-05-14T05:13:56;22.30;84.90
5196;DHT22;2617;51.006;12.436;2023-05-14T05:18:59;22.10;83.10
5196;DHT22;2617;51.006;12.436;2023-05-14T05:24:02;22.10;83.10
5196;DHT22;2617;51.006;12.436;2023-05-14T05:29:06;21.10;85.30
5196;DHT22;2617;51.006;12.436;2023-05-14T05:34:07;19.50;90.30
5196;DHT22;2617;51.006;12.436;2023-05-14T05:39:09;18.50;92.00
5196;DHT22;2617;51.006;12.436;2023-05-14T05:44:12;15.70;98.60
5196;DHT22;2617;51.006;12.436;2023-05-14T05:49:15;15.60;98.60
5196;DHT22;2617;51.006;12.436;2023-05-14T05:54:17;14.80;99.90
5196;DHT22;2617;51.006;12.436;2023-05-14T05:59:20;14.50;99.90
5196;DHT22;2617;51.006;12.436;2023-05-14T06:04:23;14.20;99.90
5196;DHT22;2617;51.006;12.436;2023-05-14T06:09:25;14.00;99.90
5196;DHT22;2617;51.006;12.436;2023-05-14T06:14:27;13.90;99.90
5196;DHT22;2617;51.006;12.436;2023-05-14T06:19:30;13.90;99.90
5196;DHT22;2617;51.006;12.436;2023-05-14T06:24:32;13.80;99.90
5196;DHT22;2617;51.006;12.436;2023-05-14T06:29:35;13.80;99.90
5196;DHT22;2617;51.006;12.436;2023-05-14T06:34:37;14.30;99.90
5196;DHT22;2617;51.006;12.436;2023-05-14T06:39:39;14.80;99.90
5196;DHT22;2617;51.006;12.436;2023-05-14T06:44:42;15.10;99.90
5196;DHT22;2617;51.006;12.436;2023-05-14T06:49:44;15.30;99.90
5196;DHT22;2617;51.006;12.436;2023-05-14T06:54:47;15.50;99.90
5196;DHT22;2617;51.006;12.436;2023-05-14T06:59:50;15.60;99.90
5196;DHT22;2617;51.006;12.436;2023-05-14T07:04:53;16.00;99.90
5196;DHT22;2617;51.006;12.436;2023-05-14T07:09:56;16.00;99.90
5196;DHT22;2617;51.006;12.436;2023-05-14T07:14:58;16.40;99.90
5196;DHT22;2617;51.006;12.436;2023-05-14T07:20:00;16.80;99.90
5196;DHT22;2617;51.006;12.436;2023-05-14T07:25:03;17.40;99.90
5196;DHT22;2617;51.006;12.436;2023-05-14T07:30:06;17.70;98.60
5196;DHT22;2617;51.006;12.436;2023-05-14T07:35:09;17.90;97.90
5196;DHT22;2617;51.006;12.436;2023-05-14T07:40:12;18.00;96.80
5196;DHT22;2617;51.006;12.436;2023-05-14T07:45:14;17.80;96.90
5196;DHT22;2617;51.006;12.436;2023-05-14T07:50:17;18.00;97.00
5196;DHT22;2617;51.006;12.436;2023-05-14T07:55:20;18.00;96.10
5196;DHT22;2617;51.006;12.436;2023-05-14T08:00:22;18.40;96.60
5196;DHT22;2617;51.006;12.436;2023-05-14T08:05:25;18.90;95.00
5196;DHT22;2617;51.006;12.436;2023-05-14T08:10:28;19.60;93.40
5196;DHT22;2617;51.006;12.436;2023-05-14T08:15:30;19.60;93.40
5196;DHT22;2617;51.006;12.436;2023-05-14T08:20:33;19.90;92.00
5196;DHT22;2617;51.006;12.436;2023-05-14T08:25:35;19.60;91.50
5196;DHT22;2617;51.006;12.436;2023-05-14T08:30:38;18.90;92.20
5196;DHT22;2617;51.006;12.436;2023-05-14T08:35:40;18.90;92.10
5196;DHT22;2617;51.006;12.436;2023-05-14T08:40:47;18.70;93.20
5196;DHT22;2617;51.006;12.436;2023-05-14T08:45:49;19.00;92.50
5196;DHT22;2617;51.006;12.436;2023-05-14T08:50:53;18.90;92.10
5196;DHT22;2617;51.006;12.436;2023-05-14T08:55:56;18.80;92.40
5196;DHT22;2617;51.006;12.436;2023-05-14T09:00:58;18.70;92.00
5196;DHT22;2617;51.006;12.436;2023-05-14T09:06:01;18.40;92.00
5196;DHT22;2617;51.006;12.436;2023-05-14T09:11:03;18.50;92.00
5196;DHT22;2617;51.006;12.436;2023-05-14T09:16:06;18.40;92.80
5196;DHT22;2617;51.006;12.436;2023-05-14T09:21:08;18.10;93.00
5196;DHT22;2617;51.006;12.436;2023-05-14T09:26:11;18.00;92.40
5196;DHT22;2617;51.006;12.436;2023-05-14T09:31:13;17.90;92.40
5196;DHT22;2617;51.006;12.436;2023-05-14T09:36:16;18.00;92.60
5196;DHT22;2617;51.006;12.436;2023-05-14T09:41:18;18.60;93.50
5196;DHT22;2617;51.006;12.436;2023-05-14T09:46:21;20.00;90.00
5196;DHT22;2617;51.006;12.436;2023-05-14T09:51:23;20.70;85.30
5196;DHT22;2617;51.006;12.436;2023-05-14T09:56:26;20.10;85.70
5196;DHT22;2617;51.006;12.436;2023-05-14T10:01:29;19.90;85.20
5196;DHT22;2617;51.006;12.436;2023-05-14T10:06:32;19.50;86.90
5196;DHT22;2617;51.006;12.436;2023-05-14T10:11:34;18.90;88.90
5196;DHT22;2617;51.006;12.436;2023-05-14T10:16:36;18.60;90.50
5196;DHT22;2617;51.006;12.436;2023-05-14T10:21:39;18.50;91.70
5196;DHT22;2617;51.006;12.436;2023-05-14T10:26:41;18.50;91.60
5196;DHT22;2617;51.006;12.436;2023-05-14T10:31:48;18.70;91.30
5196;DHT22;2617;51.006;12.436;2023-05-14T10:36:50;18.40;92.40
5196;DHT22;2617;51.006;12.436;2023-05-14T10:41:52;18.50;92.40
5196;DHT22;2617;51.006;12.436;2023-05-14T10:46:55;18.40;92.00
5196;DHT22;2617;51.006;12.436;2023-05-14T10:51:57;18.40;92.50
5196;DHT22;2617;51.006;12.436;2023-05-14T10:57:00;18.70;92.70
5196;DHT22;2617;51.006;12.436;2023-05-14T11:02:03;18.50;92.10
5196;DHT22;2617;51.006;12.436;2023-05-14T11:07:05;18.80;91.80
5196;DHT22;2617;51.006;12.436;2023-05-14T11:12:07;18.60;92.40
5196;DHT22;2617;51.006;12.436;2023-05-14T11:17:10;18.80;92.30
5196;DHT22;2617;51.006;12.436;2023-05-14T11:22:12;18.90;92.80
5196;DHT22;2617;51.006;12.436;2023-05-14T11:27:15;18.70;92.20
5196;DHT22;2617;51.006;12.436;2023-05-14T11:32:18;18.20;92.60
5196;DHT22;2617;51.006;12.436;2023-05-14T11:37:20;18.20;92.60
5196;DHT22;2617;51.006;12.436;2023-05-14T11:42:22;18.30;92.80
5196;DHT22;2617;51.006;12.436;2023-05-14T11:47:27;18.40;93.80
5196;DHT22;2617;51.006;12.436;2023-05-14T11:52:28;18.30;93.20
5196;DHT22;2617;51.006;12.436;2023-05-14T11:57:31;18.50;94.40
5196;DHT22;2617;51.006;12.436;2023-05-14T12:02:34;18.50;94.00
5196;DHT22;2617;51.006;12.436;2023-05-14T12:07:37;18.60;92.20
5196;DHT22;2617;51.006;12.436;2023-05-14T12:12:39;19.10;92.60
5196;DHT22;2617;51.006;12.436;2023-05-14T12:17:42;20.10;91.00
5196;DHT22;2617;51.006;12.436;2023-05-14T12:22:45;19.60;92.10
5196;DHT22;2617;51.006;12.436;2023-05-14T12:27:47;19.60;92.10
5196;DHT22;2617;51.006;12.436;2023-05-14T12:32:50;19.20;92.60
5196;DHT22;2617;51.006;12.436;2023-05-14T12:37:52;18.80;92.80
5196;DHT22;2617;51.006;12.436;2023-05-14T12:42:56;18.90;92.70
5196;DHT22;2617;51.006;12.436;2023-05-14T12:47:59;19.30;92.10
5196;DHT22;2617;51.006;12.436;2023-05-14T12:53:01;19.90;87.60
5196;DHT22;2617;51.006;12.436;2023-05-14T12:58:03;19.90;90.40
5196;DHT22;2617;51.006;12.436;2023-05-14T13:03:07;19.70;90.50
5196;DHT22;2617;51.006;12.436;2023-05-14T13:08:10;19.70;88.70
5196;DHT22;2617;51.006;12.436;2023-05-14T13:13:13;19.60;88.50
5196;DHT22;2617;51.006;12.436;2023-05-14T13:18:16;19.10;88.80
5196;DHT22;2617;51.006;12.436;2023-05-14T13:23:18;19.10;89.50
5196;DHT22;2617;51.006;12.436;2023-05-14T13:28:21;18.70;91.50
5196;DHT22;2617;51.006;12.436;2023-05-14T13:33:23;18.70;91.50
5196;DHT22;2617;51.006;12.436;2023-05-14T13:38:27;18.70;91.50
5196;DHT22;2617;51.006;12.436;2023-05-14T13:43:30;18.80;90.00
5196;DHT22;2617;51.006;12.436;2023-05-14T13:48:32;18.70;89.90
5196;DHT22;2617;51.006;12.436;2023-05-14T13:53:35;18.80;89.90
5196;DHT22;2617;51.006;12.436;2023-05-14T13:58:37;18.70;90.70
5196;DHT22;2617;51.006;12.436;2023-05-14T14:03:40;18.70;90.50
5196;DHT22;2617;51.006;12.436;2023-05-14T14:08:43;18.70;90.50
5196;DHT22;2617;51.006;12.436;2023-05-14T14:13:45;18.90;88.50
5196;DHT22;2617;51.006;12.436;2023-05-14T14:18:48;18.80;90.80
5196;DHT22;2617;51.006;12.436;2023-05-14T14:23:51;18.80;90.40
5196;DHT22;2617;51.006;12.436;2023-05-14T14:28:53;18.70;90.80
5196;DHT22;2617;51.006;12.436;2023-05-14T14:33:57;18.80;91.20
5196;DHT22;2617;51.006;12.436;2023-05-14T14:38:59;18.70;91.10
5196;DHT22;2617;51.006;12.436;2023-05-14T14:44:02;18.60;91.30
5196;DHT22;2617;51.006;12.436;2023-05-14T14:49:04;18.30;92.10
5196;DHT22;2617;51.006;12.436;2023-05-14T14:54:07;17.70;93.50
5196;DHT22;2617;51.006;12.436;2023-05-14T14:59:10;17.70;93.50
5196;DHT22;2617;51.006;12.436;2023-05-14T15:04:12;17.40;93.80
5196;DHT22;2617;51.006;12.436;2023-05-14T15:09:14;17.30;94.60
5196;DHT22;2617;51.006;12.436;2023-05-14T15:14:17;17.40;94.60
5196;DHT22;2617;51.006;12.436;2023-05-14T15:19:19;17.20;94.60
5196;DHT22;2617;51.006;12.436;2023-05-14T15:24:22;17.20;96.00
5196;DHT22;2617;51.006;12.436;2023-05-14T15:29:24;17.20;96.70
5196;DHT22;2617;51.006;12.436;2023-05-14T15:34:26;17.20;97.50
5196;DHT22;2617;51.006;12.436;2023-05-14T15:39:29;17.30;98.30
5196;DHT22;2617;51.006;12.436;2023-05-14T15:44:32;17.40;98.80
5196;DHT22;2617;51.006;12.436;2023-05-14T15:49:35;17.40;99.90
5196;DHT22;2617;51.006;12.436;2023-05-14T15:54:38;17.40;99.80
5196;DHT22;2617;51.006;12.436;2023-05-14T15:59:40;17.50;98.00
5196;DHT22;2617;51.006;12.436;2023-05-14T16:04:43;17.50;95.80
5196;DHT22;2617;51.006;12.436;2023-05-14T16:09:46;17.50;95.80
5196;DHT22;2617;51.006;12.436;2023-05-14T16:14:49;17.40;95.70
5196;DHT22;2617;51.006;12.436;2023-05-14T16:19:51;17.50;96.00
5196;DHT22;2617;51.006;12.436;2023-05-14T16:24:54;17.50;96.30
5196;DHT22;2617;51.006;12.436;2023-05-14T16:29:57;17.40;96.10
5196;DHT22;2617;51.006;12.436;2023-05-14T16:34:59;17.40;96.10
5196;DHT22;2617;51.006;12.436;2023-05-14T16:40:03;17.00;97.20
5196;DHT22;2617;51.006;12.436;2023-05-14T16:45:07;17.00;97.90
5196;DHT22;2617;51.006;12.436;2023-05-14T16:50:10;16.90;97.90
5196;DHT22;2617;51.006;12.436;2023-05-14T16:55:13;16.90;99.10
5196;DHT22;2617;51.006;12.436;2023-05-14T17:00:16;16.80;99.10
5196;DHT22;2617;51.006;12.436;2023-05-14T17:05:19;16.70;99.90
5196;DHT22;2617;51.006;12.436;2023-05-14T17:10:20;16.70;99.90
5196;DHT22;2617;51.006;12.436;2023-05-14T17:15:23;16.40;99.90
5196;DHT22;2617;51.006;12.436;2023-05-14T17:20:25;16.30;99.90
5196;DHT22;2617;51.006;12.436;2023-05-14T17:25:28;16.10;99.90
5196;DHT22;2617;51.006;12.436;2023-05-14T17:30:31;16.00;99.90
5196;DHT22;2617;51.006;12.436;2023-05-14T17:35:33;16.00;99.90
5196;DHT22;2617;51.006;12.436;2023-05-14T17:40:36;16.00;99.90
5196;DHT22;2617;51.006;12.436;2023-05-14T17:45:39;16.00;99.90
5196;DHT22;2617;51.006;12.436;2023-05-14T17:50:42;15.90;99.60
5196;DHT22;2617;51.006;12.436;2023-05-14T17:55:45;15.90;99.80
5196;DHT22;2617;51.006;12.436;2023-05-14T18:00:47;15.90;99.70
5196;DHT22;2617;51.006;12.436;2023-05-14T18:05:50;15.90;99.40
5196;DHT22;2617;51.006;12.436;2023-05-14T18:10:52;15.80;99.60
5196;DHT22;2617;51.006;12.436;2023-05-14T18:15:55;15.80;99.90
5196;DHT22;2617;51.006;12.436;2023-05-14T18:20:58;15.70;99.80
5196;DHT22;2617;51.006;12.436;2023-05-14T18:26:01;15.70;99.80
5196;DHT22;2617;51.006;12.436;2023-05-14T18:31:04;15.40;99.90
5196;DHT22;2617;51.006;12.436;2023-05-14T18:36:07;15.30;99.90
5196;DHT22;2617;51.006;12.436;2023-05-14T18:41:09;15.10;99.90
5196;DHT22;2617;51.006;12.436;2023-05-14T18:46:12;15.00;99.90
5196;DHT22;2617;51.006;12.436;2023-05-14T18:51:14;14.90;99.90
5196;DHT22;2617;51.006;12.436;2023-05-14T18:56:16;14.70;99.90
5196;DHT22;2617;51.006;12.436;2023-05-14T19:01:19;14.40;99.90
5196;DHT22;2617;51.006;12.436;2023-05-14T19:06:21;14.20;99.90
5196;DHT22;2617;51.006;12.436;2023-05-14T19:11:24;14.00;99.90
5196;DHT22;2617;51.006;12.436;2023-05-14T19:16:27;13.90;99.90
5196;DHT22;2617;51.006;12.436;2023-05-14T19:21:29;13.90;99.90
5196;DHT22;2617;51.006;12.436;2023-05-14T19:26:32;13.70;99.90
5196;DHT22;2617;51.006;12.436;2023-05-14T19:31:34;13.60;99.90
5196;DHT22;2617;51.006;12.436;2023-05-14T19:36:37;13.40;99.90
5196;DHT22;2617;51.006;12.436;2023-05-14T19:41:40;13.10;99.90
5196;DHT22;2617;51.006;12.436;2023-05-14T19:46:42;13.10;99.90
5196;DHT22;2617;51.006;12.436;2023-05-14T19:51:45;12.80;99.90
5196;DHT22;2617;51.006;12.436;2023-05-14T20:02:03;12.70;99.90
5196;DHT22;2617;51.006;12.436;2023-05-14T20:07:06;12.60;99.90
5196;DHT22;2617;51.006;12.436;2023-05-14T20:12:08;12.40;99.90
5196;DHT22;2617;51.006;12.436;2023-05-14T20:17:11;12.20;99.90
5196;DHT22;2617;51.006;12.436;2023-05-14T20:22:13;12.10;99.90
5196;DHT22;2617;51.006;12.436;2023-05-14T20:27:15;12.10;99.90
5196;DHT22;2617;51.006;12.436;2023-05-14T20:32:18;12.00;99.90
5196;DHT22;2617;51.006;12.436;2023-05-14T20:37:20;11.90;99.90
5196;DHT22;2617;51.006;12.436;2023-05-14T20:42:24;11.70;99.90
5196;DHT22;2617;51.006;12.436;2023-05-14T20:47:27;11.70;99.90
5196;DHT22;2617;51.006;12.436;2023-05-14T20:52:29;11.70;99.90
5196;DHT22;2617;51.006;12.436;2023-05-14T20:57:33;11.60;99.90
5196;DHT22;2617;51.006;12.436;2023-05-14T21:02:36;11.30;99.90
5196;DHT22;2617;51.006;12.436;2023-05-14T21:07:39;11.30;99.90
5196;DHT22;2617;51.006;12.436;2023-05-14T21:12:41;11.20;99.90
5196;DHT22;2617;51.006;12.436;2023-05-14T21:17:43;11.10;99.90
5196;DHT22;2617;51.006;12.436;2023-05-14T21:22:46;11.00;99.90
5196;DHT22;2617;51.006;12.436;2023-05-14T21:27:49;10.90;99.90
5196;DHT22;2617;51.006;12.436;2023-05-14T21:32:51;10.90;99.90
5196;DHT22;2617;51.006;12.436;2023-05-14T21:37:54;10.90;99.90
5196;DHT22;2617;51.006;12.436;2023-05-14T21:42:56;10.80;99.90
5196;DHT22;2617;51.006;12.436;2023-05-14T21:47:59;10.70;99.90
5196;DHT22;2617;51.006;12.436;2023-05-14T21:53:02;10.60;99.90
5196;DHT22;2617;51.006;12.436;2023-05-14T21:58:14;10.60;99.90
5196;DHT22;2617;51.006;12.436;2023-05-14T22:03:17;10.60;99.90
5196;DHT22;2617;51.006;12.436;2023-05-14T22:08:19;10.60;99.90
5196;DHT22;2617;51.006;12.436;2023-05-14T22:13:21;10.60;99.90
5196;DHT22;2617;51.006;12.436;2023-05-14T22:18:25;10.50;99.90
5196;DHT22;2617;51.006;12.436;2023-05-14T22:23:27;10.50;99.90
5196;DHT22;2617;51.006;12.436;2023-05-14T22:28:30;10.40;99.90
5196;DHT22;2617;51.006;12.436;2023-05-14T22:33:33;10.40;99.90
5196;DHT22;2617;51.006;12.436;2023-05-14T22:38:35;10.30;99.90
5196;DHT22;2617;51.006;12.436;2023-05-14T22:43:38;10.30;99.90
5196;DHT22;2617;51.006;12.436;2023-05-14T22:48:41;10.30;99.90
5196;DHT22;2617;51.006;12.436;2023-05-14T22:53:44;10.20;99.90
5196;DHT22;2617;51.006;12.436;2023-05-14T22:58:46;10.20;99.90
5196;DHT22;2617;51.006;12.436;2023-05-14T23:09:11;10.10;99.90
5196;DHT22;2617;51.006;12.436;2023-05-14T23:14:13;10.10;99.90
5196;DHT22;2617;51.006;12.436;2023-05-14T23:19:15;10.00;99.90
5196;DHT22;2617;51.006;12.436;2023-05-14T23:24:18;9.90;99.90
5196;DHT22;2617;51.006;12.436;2023-05-14T23:29:21;9.80;99.90
5196;DHT22;2617;51.006;12.436;2023-05-14T23:34:23;9.80;99.90
5196;DHT22;2617;51.006;12.436;2023-05-14T23:39:26;9.70;99.90
5196;DHT22;2617;51.006;12.436;2023-05-14T23:44:28;9.60;99.90
5196;DHT22;2617;51.006;12.436;2023-05-14T23:49:31;9.30;99.90
5196;DHT22;2617;51.006;12.436;2023-05-14T23:54:33;9.10;99.90
5196;DHT22;2617;51.006;12.436;2023-05-14T23:59:35;8.90;99.90
